Time;durP1;ratioP1;P1;durP2;ratioP2;P2;SDS_P1;SDS_P2;PMS_P1;PMS_P2;Temp;Humidity;BMP_temperature;BMP_pressure;BME280_temperature;BME280_humidity;BME280_pressure;Samples;Min_cycle;Max_cycle;Signal;HPM_P1;HPM_P2
2022/04/19 00:01:10;;;;;;;7.00;3.58;;;6.40;59.20;;;;;;5054561;28;20083;-66
2022/04/19 00:03:36;;;;;;;3.75;2.20;;;6.40;59.30;;;;;;5055428;28;20552;-66
2022/04/19 00:06:03;;;;;;;2.40;2.15;;;6.30;59.30;;;;;;5054277;28;20335;-66
2022/04/19 00:08:28;;;;;;;3.20;2.00;;;6.30;59.30;;;;;;5056576;28;20115;-66
2022/04/19 00:10:54;;;;;;;2.70;2.00;;;6.30;59.30;;;;;;5054175;28;20667;-65
2022/04/19 00:13:20;;;;;;;4.88;2.42;;;6.20;59.30;;;;;;5059635;28;20033;-63
2022/04/19 00:15:46;;;;;;;3.92;1.85;;;6.20;59.30;;;;;;5057789;28;20033;-66
2022/04/19 00:18:12;;;;;;;4.13;2.00;;;6.10;59.30;;;;;;5057433;28;20452;-66
2022/04/19 00:20:40;;;;;;;3.08;2.00;;;6.10;59.40;;;;;;5057906;28;20037;-65
2022/04/19 00:23:12;;;;;;;3.17;1.83;;;6.00;59.50;;;;;;5057084;28;20051;-66
2022/04/19 00:25:48;;;;;;;2.13;1.92;;;6.00;59.50;;;;;;5056870;28;20036;-65
2022/04/19 00:28:14;;;;;;;4.15;2.20;;;6.00;59.50;;;;;;5056608;28;20359;-65
2022/04/19 00:30:41;;;;;;;3.33;2.40;;;6.00;59.80;;;;;;5057230;28;20045;-65
2022/04/19 00:33:08;;;;;;;2.80;2.10;;;5.90;59.90;;;;;;5056626;28;20060;-66
2022/04/19 00:35:35;;;;;;;4.60;2.50;;;5.90;60.00;;;;;;5057611;28;20043;-66
2022/04/19 00:38:01;;;;;;;2.65;2.03;;;5.90;60.30;;;;;;5057192;28;20063;-65
2022/04/19 00:40:27;;;;;;;2.20;2.00;;;5.90;60.20;;;;;;5056206;28;20553;-65
2022/04/19 00:42:56;;;;;;;2.42;2.00;;;5.90;60.20;;;;;;5056896;28;20037;-66
2022/04/19 00:45:25;;;;;;;1.95;1.73;;;5.90;60.10;;;;;;5054918;28;20024;-67
2022/04/19 00:47:52;;;;;;;4.10;2.20;;;5.80;60.20;;;;;;5058111;28;20032;-66
2022/04/19 00:50:19;;;;;;;3.70;2.60;;;5.80;60.40;;;;;;5057440;28;20148;-66
2022/04/19 00:52:45;;;;;;;3.70;2.42;;;5.80;60.90;;;;;;5057384;28;20040;-66
2022/04/19 00:55:11;;;;;;;2.83;2.30;;;5.70;60.90;;;;;;5056518;28;20041;-65
2022/04/19 00:57:38;;;;;;;2.97;2.42;;;5.70;61.00;;;;;;5056956;28;20042;-65
2022/04/19 01:00:08;;;;;;;4.15;2.78;;;5.70;61.30;;;;;;5055799;28;20326;-65
2022/04/19 01:02:35;;;;;;;4.15;2.95;;;5.60;61.40;;;;;;5073161;28;20443;-65
2022/04/19 01:05:00;;;;;;;5.15;3.20;;;5.60;61.50;;;;;;5072613;28;20481;-66
2022/04/19 01:07:26;;;;;;;5.95;3.30;;;5.60;62.50;;;;;;5056989;28;20148;-65
2022/04/19 01:09:52;;;;;;;4.43;3.30;;;5.50;61.80;;;;;;5057005;28;20102;-66
2022/04/19 01:15:05;;;;;;;4.13;2.80;;;5.40;61.80;;;;;;5054428;28;20123;-66
2022/04/19 01:17:33;;;;;;;4.32;3.15;;;5.40;61.80;;;;;;5056767;28;20108;-66
2022/04/19 01:20:00;;;;;;;4.57;3.28;;;5.40;61.60;;;;;;5055401;28;20037;-66
2022/04/19 01:22:25;;;;;;;6.43;3.35;;;5.40;61.80;;;;;;5054327;28;20045;-65
2022/04/19 01:24:51;;;;;;;6.82;3.30;;;5.40;61.80;;;;;;5056092;28;20157;-66
2022/04/19 01:27:18;;;;;;;4.30;3.30;;;5.40;61.80;;;;;;5055138;28;20036;-66
2022/04/19 01:29:45;;;;;;;4.78;3.30;;;5.40;61.80;;;;;;5055639;28;20079;-66
2022/04/19 01:32:12;;;;;;;4.13;3.30;;;5.30;61.80;;;;;;5055056;28;20537;-66
2022/04/19 01:34:38;;;;;;;6.50;3.67;;;5.30;61.90;;;;;;5053738;28;20600;-65
2022/04/19 01:37:04;;;;;;;3.88;3.20;;;5.20;61.80;;;;;;5054333;28;20037;-66
2022/04/19 01:42:29;;;;;;;8.13;3.63;;;5.20;62.00;;;;;;5011731;28;20119;-64
2022/04/19 01:44:55;;;;;;;6.28;3.78;;;5.10;61.70;;;;;;5054182;28;20052;-66
2022/04/19 01:47:20;;;;;;;4.93;3.45;;;5.10;62.00;;;;;;5053889;28;20040;-65
2022/04/19 01:49:46;;;;;;;4.65;3.40;;;5.10;62.10;;;;;;5055246;28;20033;-66
2022/04/19 01:52:12;;;;;;;5.00;3.50;;;5.10;62.30;;;;;;5057336;28;20039;-66
2022/04/19 01:54:38;;;;;;;5.75;3.63;;;5.00;62.40;;;;;;5058288;28;20673;-65
2022/04/19 01:57:03;;;;;;;6.88;3.72;;;5.00;62.50;;;;;;5056939;28;20041;-65
2022/04/19 01:59:29;;;;;;;7.50;3.88;;;5.00;62.60;;;;;;5057809;28;20490;-65
2022/04/19 02:01:54;;;;;;;5.45;3.47;;;5.00;62.60;;;;;;5057935;28;20025;-65
2022/04/19 02:04:20;;;;;;;5.68;3.58;;;5.00;62.60;;;;;;5057024;28;20033;-65
2022/04/19 02:06:46;;;;;;;5.03;3.47;;;5.00;62.60;;;;;;5057637;28;20170;-65
2022/04/19 02:09:11;;;;;;;6.35;4.10;;;5.00;62.50;;;;;;5056235;28;20041;-66
2022/04/19 02:11:38;;;;;;;7.22;4.15;;;5.00;62.60;;;;;;5057794;28;20039;-65
2022/04/19 02:14:04;;;;;;;5.28;3.53;;;5.00;62.60;;;;;;5057942;28;20041;-66
2022/04/19 02:16:31;;;;;;;7.60;4.10;;;5.00;62.60;;;;;;5059068;28;20036;-65
2022/04/19 02:18:57;;;;;;;6.10;3.88;;;4.90;62.40;;;;;;5059201;28;20505;-65
2022/04/19 02:21:23;;;;;;;6.97;3.55;;;4.90;62.60;;;;;;5058154;28;20039;-65
2022/04/19 02:23:49;;;;;;;5.47;3.85;;;4.90;62.80;;;;;;5057779;28;20108;-65
2022/04/19 02:26:14;;;;;;;4.15;3.35;;;4.90;62.80;;;;;;5055951;28;20093;-66
2022/04/19 02:28:40;;;;;;;4.97;3.60;;;4.90;62.70;;;;;;5056691;28;20432;-65
2022/04/19 02:31:08;;;;;;;4.85;3.65;;;4.80;62.70;;;;;;5055850;28;20036;-65
2022/04/19 02:33:34;;;;;;;6.28;3.90;;;4.80;62.80;;;;;;5058954;28;20039;-66
2022/04/19 02:36:00;;;;;;;5.43;3.42;;;4.70;62.80;;;;;;5058362;28;20425;-66
2022/04/19 02:38:25;;;;;;;5.65;3.35;;;4.70;63.00;;;;;;5055374;28;20051;-65
2022/04/19 02:40:51;;;;;;;5.90;3.58;;;4.70;63.30;;;;;;5057478;28;20374;-65
2022/04/19 02:43:16;;;;;;;5.15;3.30;;;4.60;63.30;;;;;;5057583;28;20056;-65
2022/04/19 02:45:42;;;;;;;6.15;3.53;;;4.60;63.30;;;;;;5059536;28;20038;-66
2022/04/19 02:48:08;;;;;;;5.22;3.30;;;4.60;63.30;;;;;;5056933;28;20164;-64
2022/04/19 02:50:41;;;;;;;4.45;3.53;;;4.50;63.50;;;;;;5055642;28;20505;-61
2022/04/19 02:53:07;;;;;;;5.90;3.30;;;4.50;64.00;;;;;;5058672;28;20036;-64
2022/04/19 02:55:32;;;;;;;5.97;3.60;;;4.50;63.70;;;;;;5059021;28;20106;-66
2022/04/19 02:57:58;;;;;;;4.47;3.28;;;4.50;63.60;;;;;;5056851;28;20033;-65
2022/04/19 03:00:24;;;;;;;4.07;3.08;;;4.40;63.50;;;;;;5056347;28;20651;-65
2022/04/19 03:02:50;;;;;;;3.38;3.08;;;4.40;63.70;;;;;;5071040;28;20056;-65
2022/04/19 03:05:18;;;;;;;5.57;3.40;;;4.40;63.70;;;;;;5056250;28;20033;-66
2022/04/19 03:07:43;;;;;;;3.88;3.20;;;4.40;63.70;;;;;;5058025;28;20035;-65
2022/04/19 03:10:09;;;;;;;5.40;3.72;;;4.40;63.60;;;;;;5056518;28;20441;-65
2022/04/19 03:12:35;;;;;;;5.55;3.38;;;4.40;63.70;;;;;;5057130;28;20033;-65
2022/04/19 03:15:00;;;;;;;3.78;3.35;;;4.40;63.90;;;;;;5057605;28;20047;-65
2022/04/19 03:17:26;;;;;;;3.70;3.30;;;4.30;63.90;;;;;;5059118;28;20029;-65
2022/04/19 03:19:52;;;;;;;3.60;3.20;;;4.30;64.00;;;;;;5058435;28;20032;-65
2022/04/19 03:22:18;;;;;;;5.75;3.22;;;4.20;64.10;;;;;;5059941;28;20078;-65
2022/04/19 03:27:44;;;;;;;3.00;2.42;;;4.40;65.30;;;;;;5057305;28;20467;-64
2022/04/19 03:30:14;;;;;;;4.07;3.10;;;4.20;64.30;;;;;;5056321;28;20113;-65
2022/04/19 03:32:43;;;;;;;5.25;3.58;;;4.20;64.20;;;;;;5055946;28;20087;-66
2022/04/19 03:35:10;;;;;;;3.25;2.70;;;4.10;64.40;;;;;;5058938;28;20064;-66
2022/04/19 03:37:38;;;;;;;5.90;3.10;;;4.10;64.60;;;;;;5059412;28;20082;-65
2022/04/19 03:40:04;;;;;;;3.95;3.08;;;4.10;64.60;;;;;;5056551;28;20033;-64
2022/04/19 03:42:30;;;;;;;3.75;3.08;;;4.10;64.60;;;;;;5056334;28;20355;-65
2022/04/19 03:44:55;;;;;;;5.13;3.70;;;4.10;64.60;;;;;;5056217;28;20040;-64
2022/04/19 03:47:21;;;;;;;4.00;3.10;;;4.10;64.40;;;;;;5055336;28;20041;-65
2022/04/19 03:49:47;;;;;;;4.32;3.60;;;4.10;64.30;;;;;;5055451;28;20094;-63
2022/04/19 03:52:12;;;;;;;8.68;4.95;;;4.10;64.30;;;;;;5069642;28;20572;-65
2022/04/19 03:54:38;;;;;;;10.80;5.75;;;4.10;64.50;;;;;;5054790;28;20522;-65
2022/04/19 03:57:07;;;;;;;8.45;5.10;;;4.10;64.50;;;;;;5055092;28;20044;-65
2022/04/19 03:59:34;;;;;;;7.80;4.97;;;4.10;64.50;;;;;;5058036;28;22204;-65
2022/04/19 04:01:59;;;;;;;6.70;4.50;;;4.10;64.60;;;;;;5056669;28;20041;-65
2022/04/19 04:04:30;;;;;;;8.65;5.38;;;4.00;64.70;;;;;;5057490;28;20605;-65
2022/04/19 04:06:57;;;;;;;7.60;5.03;;;4.10;64.80;;;;;;5055400;28;20094;-65
2022/04/19 04:09:24;;;;;;;10.13;4.90;;;4.10;64.90;;;;;;5057838;28;20048;-65
2022/04/19 04:11:49;;;;;;;7.13;5.03;;;4.10;64.80;;;;;;5052509;28;20068;-63
2022/04/19 04:14:15;;;;;;;9.18;5.72;;;4.10;64.70;;;;;;5052702;28;20118;-65
2022/04/19 04:16:40;;;;;;;8.05;5.75;;;4.00;64.60;;;;;;5056418;28;20032;-64
2022/04/19 04:19:06;;;;;;;9.07;5.97;;;4.10;64.80;;;;;;5055447;28;20029;-66
2022/04/19 04:21:32;;;;;;;10.88;6.25;;;4.10;65.00;;;;;;5056353;28;20270;-66
2022/04/19 04:23:57;;;;;;;10.00;6.75;;;4.10;65.10;;;;;;5055296;28;20041;-66
2022/04/19 04:26:23;;;;;;;11.77;6.63;;;4.00;65.10;;;;;;5057404;28;20610;-65
2022/04/19 04:28:48;;;;;;;11.63;6.55;;;4.10;65.30;;;;;;5049199;28;20574;-65
2022/04/19 04:31:14;;;;;;;8.85;5.90;;;4.00;65.30;;;;;;5040257;28;20114;-64
2022/04/19 04:33:40;;;;;;;9.93;5.40;;;4.00;65.40;;;;;;5041790;28;20082;-65
2022/04/19 04:36:05;;;;;;;8.32;5.50;;;4.00;65.40;;;;;;5051735;28;20742;-65
2022/04/19 04:38:31;;;;;;;9.38;5.20;;;4.00;65.50;;;;;;5051702;28;20137;-65
2022/04/19 04:40:57;;;;;;;12.98;5.45;;;4.00;65.50;;;;;;5057002;28;20116;-65
2022/04/19 04:43:23;;;;;;;10.73;5.90;;;4.00;65.60;;;;;;5056691;28;20752;-66
2022/04/19 04:49:35;;;;;;;10.32;4.53;;;4.00;65.40;;;;;;5055320;28;20059;-65
2022/04/19 04:51:18;;;;;;;6.22;4.30;;;3.90;65.40;;;;;;5056854;28;20408;-66
2022/04/19 04:53:43;;;;;;;4.80;3.65;;;3.90;65.40;;;;;;5057024;28;20028;-65
2022/04/19 04:56:09;;;;;;;8.25;3.63;;;3.90;65.60;;;;;;5054463;28;20047;-65
2022/04/19 04:58:35;;;;;;;4.10;3.55;;;3.90;65.90;;;;;;5057228;28;20432;-65
2022/04/19 05:01:00;;;;;;;5.63;3.83;;;3.90;66.00;;;;;;5056075;28;20523;-66
2022/04/19 05:03:26;;;;;;;4.53;3.75;;;3.90;66.20;;;;;;5055248;28;20039;-66
2022/04/19 05:05:52;;;;;;;6.57;3.60;;;3.90;66.30;;;;;;5052769;28;20036;-65
2022/04/19 05:08:18;;;;;;;8.68;4.05;;;3.90;66.30;;;;;;5054504;28;20041;-66
2022/04/19 05:10:44;;;;;;;5.97;3.53;;;3.90;66.50;;;;;;5053330;28;20038;-65
2022/04/19 05:13:09;;;;;;;4.53;3.85;;;3.90;66.60;;;;;;5054326;28;20120;-65
2022/04/19 05:15:35;;;;;;;6.97;4.72;;;3.90;66.70;;;;;;5054303;28;20060;-66
2022/04/19 05:18:01;;;;;;;11.32;4.53;;;4.00;66.80;;;;;;5054683;28;20493;-64
2022/04/19 05:20:26;;;;;;;13.27;4.50;;;4.00;66.70;;;;;;5055447;28;20041;-65
2022/04/19 05:22:52;;;;;;;12.20;3.50;;;4.00;66.70;;;;;;5074119;28;20029;-65
2022/04/19 05:25:18;;;;;;;8.77;3.90;;;4.10;66.70;;;;;;5055249;28;20035;-65
2022/04/19 05:27:43;;;;;;;8.40;4.03;;;4.10;66.90;;;;;;5054988;28;20024;-66
2022/04/19 05:30:09;;;;;;;11.27;4.10;;;4.10;66.80;;;;;;5055198;28;20090;-65
2022/04/19 05:32:35;;;;;;;17.55;4.20;;;4.20;67.00;;;;;;5055161;28;20032;-65
2022/04/19 05:35:01;;;;;;;9.20;4.30;;;4.30;67.20;;;;;;5054009;28;20044;-65
2022/04/19 05:37:27;;;;;;;9.88;4.93;;;4.30;67.20;;;;;;5053877;28;20033;-64
2022/04/19 05:39:52;;;;;;;11.18;5.03;;;4.40;67.10;;;;;;5056643;28;20032;-65
2022/04/19 05:42:18;;;;;;;7.90;4.68;;;4.40;67.00;;;;;;5055300;28;20040;-66
2022/04/19 05:44:43;;;;;;;7.82;4.93;;;4.50;67.00;;;;;;5054243;28;20338;-65
2022/04/19 05:47:09;;;;;;;7.18;4.60;;;4.60;67.10;;;;;;5053158;28;20517;-65
2022/04/19 05:49:35;;;;;;;8.10;4.32;;;4.70;67.20;;;;;;5055265;28;20041;-64
2022/04/19 05:52:02;;;;;;;9.02;4.93;;;4.80;67.10;;;;;;5055371;28;20039;-65
2022/04/19 05:54:28;;;;;;;9.05;5.13;;;4.90;67.00;;;;;;5052028;28;20032;-65
2022/04/19 05:56:53;;;;;;;9.50;5.55;;;5.00;67.00;;;;;;5054541;28;20033;-64
2022/04/19 05:59:19;;;;;;;12.57;5.07;;;5.10;67.10;;;;;;5055032;28;20493;-64
2022/04/19 06:07:13;;;;;;;9.90;5.47;;;5.50;66.80;;;;;;5055974;28;20039;-64
2022/04/19 06:09:38;;;;;;;13.07;5.32;;;5.60;66.60;;;;;;5055720;28;20048;-65
2022/04/19 06:12:04;;;;;;;14.82;5.00;;;5.70;66.50;;;;;;5054959;28;20527;-65
2022/04/19 06:14:30;;;;;;;10.23;4.43;;;5.80;66.30;;;;;;5054344;28;20041;-65
2022/04/19 06:16:56;;;;;;;8.55;4.18;;;6.00;66.30;;;;;;5056447;28;20410;-65
2022/04/19 06:19:22;;;;;;;9.98;3.95;;;6.00;66.10;;;;;;5055021;28;20044;-64
2022/04/19 06:21:48;;;;;;;9.35;4.30;;;6.20;66.30;;;;;;5054363;28;20053;-64
2022/04/19 06:24:14;;;;;;;6.93;3.90;;;6.30;66.20;;;;;;5055848;28;20036;-65
2022/04/19 06:26:39;;;;;;;13.43;4.20;;;6.40;66.00;;;;;;5054111;28;21960;-65
2022/04/19 06:29:06;;;;;;;10.90;3.97;;;6.50;66.00;;;;;;5053954;28;20069;-65
2022/04/19 06:31:32;;;;;;;4.07;3.60;;;6.60;66.10;;;;;;5055255;28;20071;-66
2022/04/19 06:33:58;;;;;;;7.60;3.90;;;6.80;65.90;;;;;;5057772;28;20123;-64
2022/04/19 06:36:23;;;;;;;7.43;3.90;;;6.90;65.70;;;;;;5056122;28;20644;-64
2022/04/19 06:38:49;;;;;;;8.40;4.25;;;7.00;65.60;;;;;;5041958;28;20487;-65
2022/04/19 06:41:15;;;;;;;6.25;3.78;;;7.10;65.40;;;;;;5059037;28;20036;-65
2022/04/19 06:43:41;;;;;;;6.72;4.03;;;7.10;65.10;;;;;;5059731;28;20513;-65
2022/04/19 06:46:08;;;;;;;3.88;3.47;;;7.30;65.10;;;;;;5058020;28;20040;-65
2022/04/19 06:48:34;;;;;;;5.80;4.05;;;7.40;65.00;;;;;;5057312;28;20520;-65
2022/04/19 06:51:00;;;;;;;7.07;4.13;;;7.50;64.80;;;;;;5059856;28;20439;-65
2022/04/19 06:53:30;;;;;;;11.57;4.38;;;7.60;64.80;;;;;;5057993;28;20163;-65
2022/04/19 06:55:56;;;;;;;11.02;4.32;;;7.70;64.50;;;;;;5057628;28;20025;-65
2022/04/19 06:58:22;;;;;;;5.60;3.58;;;7.90;63.80;;;;;;5057685;28;20413;-65
2022/04/19 07:00:48;;;;;;;9.90;3.72;;;8.00;63.40;;;;;;5059632;28;20975;-65
2022/04/19 07:03:14;;;;;;;10.50;3.55;;;8.10;63.20;;;;;;5056794;28;20048;-65
2022/04/19 07:05:40;;;;;;;6.07;3.60;;;8.20;63.20;;;;;;5059221;28;20777;-65
2022/04/19 07:08:07;;;;;;;6.90;3.97;;;8.40;63.50;;;;;;5055676;28;20527;-66
2022/04/19 07:10:36;;;;;;;4.55;3.92;;;8.40;63.60;;;;;;5058636;28;20037;-65
2022/04/19 07:13:03;;;;;;;5.05;4.00;;;8.60;63.10;;;;;;5059066;28;20386;-65
2022/04/19 07:15:29;;;;;;;3.97;3.50;;;8.70;62.90;;;;;;5057617;28;20035;-65
2022/04/19 07:17:54;;;;;;;4.40;3.72;;;8.80;62.30;;;;;;5055507;28;20428;-65
2022/04/19 07:28:35;;;;;;;4.93;3.93;;;9.30;61.60;;;;;;5057270;28;20034;-65
2022/04/19 07:31:02;;;;;;;4.97;3.80;;;9.40;61.40;;;;;;5059390;28;20029;-65
2022/04/19 07:33:27;;;;;;;5.45;3.85;;;9.50;61.30;;;;;;5056127;28;20037;-65
2022/04/19 07:35:53;;;;;;;4.63;3.78;;;9.60;61.20;;;;;;5057315;28;20029;-66
2022/04/19 07:38:18;;;;;;;4.28;3.70;;;9.70;61.00;;;;;;5058581;28;20033;-65
2022/04/19 07:40:45;;;;;;;9.98;3.75;;;9.80;60.80;;;;;;5055359;28;20064;-65
2022/04/19 07:43:11;;;;;;;5.70;3.85;;;9.90;60.60;;;;;;5055920;28;20409;-65
2022/04/19 07:45:36;;;;;;;5.63;3.38;;;10.00;60.40;;;;;;5059274;28;20689;-65
2022/04/19 07:48:04;;;;;;;4.32;3.65;;;10.20;60.30;;;;;;5059491;28;20054;-65
2022/04/19 07:50:30;;;;;;;5.32;3.70;;;10.30;60.10;;;;;;5057334;28;20041;-65
2022/04/19 07:52:56;;;;;;;4.40;3.50;;;10.40;60.00;;;;;;5059076;28;20040;-65
2022/04/19 07:55:23;;;;;;;7.65;3.95;;;10.50;59.60;;;;;;5056255;28;20513;-65
2022/04/19 07:57:49;;;;;;;7.97;3.78;;;10.60;59.20;;;;;;5055865;28;20127;-65
2022/04/19 08:00:16;;;;;;;8.57;3.40;;;10.80;59.00;;;;;;5056495;28;20182;-64
2022/04/19 08:02:42;;;;;;;4.75;2.92;;;10.90;58.80;;;;;;5054546;28;20061;-65
2022/04/19 08:05:09;;;;;;;5.13;3.40;;;11.10;58.50;;;;;;5057376;28;20541;-65
2022/04/19 08:07:35;;;;;;;4.78;3.33;;;11.20;58.10;;;;;;5056442;28;20037;-66
2022/04/19 08:10:01;;;;;;;6.20;3.20;;;11.30;57.50;;;;;;5059010;28;20069;-65
2022/04/19 08:12:27;;;;;;;5.28;3.17;;;11.40;57.10;;;;;;5054590;28;20036;-65
2022/04/19 08:14:55;;;;;;;6.35;3.10;;;11.60;56.70;;;;;;5056184;28;20450;-64
2022/04/19 08:17:21;;;;;;;8.95;3.33;;;11.70;56.50;;;;;;5057248;28;20083;-65
2022/04/19 08:19:47;;;;;;;5.68;3.05;;;11.80;56.30;;;;;;5054901;28;20065;-65
2022/04/19 08:22:12;;;;;;;4.53;2.55;;;11.90;55.90;;;;;;5057358;28;20040;-66
2022/04/19 08:24:38;;;;;;;8.75;2.80;;;12.10;55.50;;;;;;5055287;28;20051;-61
2022/04/19 08:27:04;;;;;;;6.28;2.53;;;12.20;55.30;;;;;;5055519;28;20028;-65
2022/04/19 08:29:30;;;;;;;4.65;3.00;;;12.30;55.10;;;;;;5055869;28;20064;-66
2022/04/19 08:31:56;;;;;;;5.45;3.00;;;12.40;55.00;;;;;;5057952;28;20067;-66
2022/04/19 08:34:22;;;;;;;4.05;2.33;;;12.60;54.60;;;;;;5055946;28;20697;-64
2022/04/19 08:36:47;;;;;;;3.67;2.50;;;12.70;53.50;;;;;;5054125;28;20045;-64
2022/04/19 08:39:13;;;;;;;2.40;2.17;;;12.80;52.70;;;;;;5056868;28;20037;-66
2022/04/19 08:41:40;;;;;;;3.65;2.33;;;12.90;52.20;;;;;;5057901;28;20051;-65
2022/04/19 08:44:07;;;;;;;2.63;2.38;;;13.00;51.40;;;;;;5056656;28;20040;-66
2022/04/19 08:46:33;;;;;;;3.55;2.80;;;13.10;51.40;;;;;;5056616;28;20032;-65
2022/04/19 08:49:04;;;;;;;4.43;2.55;;;13.20;51.80;;;;;;5058667;28;20043;-65
2022/04/19 08:51:34;;;;;;;3.03;2.22;;;13.40;51.60;;;;;;5056095;28;20041;-65
2022/04/19 08:59:29;;;;;;;2.60;2.10;;;13.70;52.00;;;;;;5054539;28;20082;-66
2022/04/19 09:01:55;;;;;;;3.42;2.13;;;13.80;51.80;;;;;;5058245;28;20506;-66
2022/04/19 09:04:22;;;;;;;3.83;2.33;;;13.90;51.60;;;;;;5054392;28;20043;-66
2022/04/19 09:06:56;;;;;;;3.38;2.13;;;14.00;51.40;;;;;;5056044;28;20280;-66
2022/04/19 09:09:30;;;;;;;1.50;1.40;;;14.20;50.80;;;;;;5056699;28;20452;-66
2022/04/19 09:12:12;;;;;;;1.70;1.60;;;14.30;50.60;;;;;;5055616;28;20037;-65
2022/04/19 09:15:03;;;;;;;2.35;1.85;;;14.40;49.40;;;;;;5056679;28;20382;-65
2022/04/19 09:17:34;;;;;;;2.85;2.20;;;14.50;48.90;;;;;;5057024;28;20333;-66
2022/04/19 09:20:09;;;;;;;2.90;1.83;;;14.60;48.40;;;;;;5058121;28;20048;-65
2022/04/19 09:22:36;;;;;;;2.38;1.80;;;14.70;48.50;;;;;;5056513;28;20041;-66
2022/04/19 09:25:17;;;;;;;7.38;2.33;;;14.90;49.00;;;;;;5054517;28;20501;-65
2022/04/19 09:27:44;;;;;;;2.35;2.15;;;14.90;48.10;;;;;;5058727;28;20033;-65
2022/04/19 09:30:35;;;;;;;2.15;1.92;;;15.10;49.00;;;;;;5057144;28;20331;-66
2022/04/19 09:33:16;;;;;;;2.85;2.00;;;15.20;47.80;;;;;;5053364;28;20115;-66
2022/04/19 09:35:55;;;;;;;2.33;2.13;;;15.30;47.40;;;;;;5055498;28;20037;-66
2022/04/19 09:38:39;;;;;;;2.78;2.03;;;15.40;48.10;;;;;;5055703;28;20459;-66
2022/04/19 09:41:07;;;;;;;2.80;2.08;;;15.50;47.10;;;;;;5055093;28;20043;-66
2022/04/19 09:43:33;;;;;;;3.22;2.20;;;15.50;47.90;;;;;;5056659;28;20048;-66
2022/04/19 09:46:02;;;;;;;2.67;2.28;;;15.60;47.50;;;;;;5056522;28;20029;-66
2022/04/19 09:48:35;;;;;;;2.42;2.22;;;15.70;46.20;;;;;;5055052;28;20482;-65
2022/04/19 09:51:13;;;;;;;2.42;2.22;;;15.70;46.10;;;;;;5054693;28;20586;-66
2022/04/19 09:53:39;;;;;;;2.67;2.10;;;15.70;46.00;;;;;;5052055;28;20064;-66
2022/04/19 09:56:09;;;;;;;2.70;2.10;;;15.80;46.50;;;;;;5055923;28;20071;-66
2022/04/19 09:58:37;;;;;;;3.47;1.95;;;15.80;46.00;;;;;;5052554;28;20658;-66
2022/04/19 10:01:04;;;;;;;3.85;2.10;;;15.80;46.40;;;;;;5053414;28;20025;-66
2022/04/19 10:09:00;;;;;;;;;;;16.00;46.60;;;;;;5058204;28;20524;-66
2022/04/19 10:11:27;;;;;;;2.55;2.10;;;16.10;47.00;;;;;;5053027;28;19916;-66
2022/04/19 10:13:57;;;;;;;3.50;2.35;;;16.20;47.00;;;;;;5059223;28;20151;-66
2022/04/19 10:16:23;;;;;;;5.85;2.10;;;16.30;46.80;;;;;;5060365;28;20033;-66
2022/04/19 10:18:49;;;;;;;4.75;2.30;;;16.40;46.60;;;;;;5057510;28;20044;-66
2022/04/19 10:21:20;;;;;;;2.50;2.30;;;16.40;46.00;;;;;;5061336;28;20391;-66
2022/04/19 10:23:47;;;;;;;2.35;2.08;;;16.50;45.70;;;;;;5059496;28;20037;-66
2022/04/19 10:26:19;;;;;;;2.83;2.22;;;16.60;46.00;;;;;;5058205;28;20094;-66
2022/04/19 10:28:49;;;;;;;2.60;2.40;;;16.60;45.10;;;;;;5056943;28;20048;-65
2022/04/19 10:31:26;;;;;;;2.47;1.92;;;16.70;45.10;;;;;;5052486;28;20068;-66
2022/04/19 10:33:52;;;;;;;2.90;2.20;;;16.70;44.70;;;;;;5056911;28;20060;-66
2022/04/19 10:36:39;;;;;;;3.45;2.30;;;16.80;45.20;;;;;;5059346;28;20040;-66
2022/04/19 10:39:14;;;;;;;2.05;1.85;;;16.80;44.30;;;;;;5058753;28;20413;-66
2022/04/19 10:41:58;;;;;;;3.67;2.60;;;16.90;44.60;;;;;;5060636;28;20040;-66
2022/04/19 10:44:28;;;;;;;3.17;2.60;;;16.90;43.10;;;;;;5060643;28;20029;-66
2022/04/19 10:47:14;;;;;;;3.75;2.20;;;17.00;43.70;;;;;;5059202;28;20537;-64
2022/04/19 10:50:04;;;;;;;2.33;2.00;;;17.00;43.10;;;;;;5073749;28;20409;-65
2022/04/19 10:52:43;;;;;;;3.13;2.20;;;16.90;42.90;;;;;;5060568;28;20024;-65
2022/04/19 10:55:21;;;;;;;13.05;2.20;;;16.90;42.90;;;;;;5059134;28;20040;-66
2022/04/19 11:00:34;;;;;;;4.60;2.20;;;17.00;44.30;;;;;;5059799;28;20051;-66
2022/04/19 11:03:15;;;;;;;2.40;2.20;;;17.00;43.30;;;;;;5059758;28;20040;-66
2022/04/19 11:05:52;;;;;;;2.30;2.10;;;17.00;44.20;;;;;;5057920;28;20042;-66
2022/04/19 11:08:29;;;;;;;2.55;2.20;;;17.00;43.40;;;;;;5058848;28;20090;-66
2022/04/19 11:10:58;;;;;;;3.17;2.15;;;17.00;43.20;;;;;;5056614;28;20033;-66
2022/04/19 11:13:38;;;;;;;3.13;2.55;;;17.00;42.90;;;;;;5074455;28;21655;-66
2022/04/19 11:16:06;;;;;;;2.53;2.22;;;17.00;42.50;;;;;;5058465;28;20299;-66
2022/04/19 11:18:35;;;;;;;2.63;2.28;;;17.10;43.70;;;;;;5054967;28;20044;-66
2022/04/19 11:21:06;;;;;;;2.38;1.98;;;17.00;43.60;;;;;;5058474;28;20033;-65
2022/04/19 11:23:45;;;;;;;2.28;2.08;;;17.10;43.00;;;;;;5055985;28;20087;-66
2022/04/19 11:26:33;;;;;;;2.70;2.30;;;17.20;42.70;;;;;;5057661;28;20029;-65
2022/04/19 11:29:11;;;;;;;3.55;1.60;;;17.20;42.70;;;;;;5052919;28;20064;-65
2022/04/19 11:31:45;;;;;;;1.70;1.60;;;17.30;43.00;;;;;;5055469;28;20072;-66
2022/04/19 11:34:16;;;;;;;1.88;1.70;;;17.30;41.60;;;;;;5053713;28;20505;-64
2022/04/19 11:36:42;;;;;;;1.45;1.35;;;17.40;40.90;;;;;;5056282;28;20037;-63
2022/04/19 11:46:43;;;;;;;1.85;1.75;;;17.40;41.70;;;;;;5056707;28;20029;-64
2022/04/19 11:47:48;;;;;;;1.92;1.73;;;17.50;41.00;;;;;;5059539;28;20106;-65
2022/04/19 11:50:31;;;;;;;1.50;1.40;;;17.50;40.80;;;;;;5055109;28;20177;-66
2022/04/19 11:53:00;;;;;;;1.63;1.38;;;17.50;41.10;;;;;;5054686;28;20040;-65
2022/04/19 11:55:27;;;;;;;2.35;1.40;;;17.60;40.40;;;;;;5059127;28;20024;-66
2022/04/19 11:58:08;;;;;;;3.40;1.42;;;17.60;40.90;;;;;;5056579;28;20068;-66
2022/04/19 12:00:34;;;;;;;1.55;1.45;;;17.60;40.10;;;;;;5056216;28;20039;-66
2022/04/19 12:03:02;;;;;;;1.98;1.77;;;17.70;40.80;;;;;;5055836;28;20921;-66
2022/04/19 12:05:30;;;;;;;1.85;1.50;;;17.70;40.30;;;;;;5056619;28;20033;-66
2022/04/19 12:07:56;;;;;;;2.15;1.85;;;17.70;40.30;;;;;;5052091;28;20036;-66
2022/04/19 12:10:23;;;;;;;2.38;1.55;;;17.70;40.00;;;;;;5059524;28;20040;-66
2022/04/19 12:12:50;;;;;;;1.73;1.63;;;17.70;39.80;;;;;;5052947;28;20133;-66
2022/04/19 12:15:45;;;;;;;2.88;2.05;;;17.80;40.00;;;;;;5055097;28;20060;-66
2022/04/19 12:18:32;;;;;;;1.50;1.40;;;17.80;38.40;;;;;;5047055;28;20052;-65
2022/04/19 12:20:58;;;;;;;1.73;1.63;;;17.80;39.00;;;;;;5057477;28;20455;-66
2022/04/19 12:23:24;;;;;;;1.60;1.50;;;17.90;39.60;;;;;;5058700;28;20404;-67
2022/04/19 12:26:06;;;;;;;2.20;1.50;;;17.90;39.80;;;;;;5061237;28;20037;-65
2022/04/19 12:28:38;;;;;;;2.50;1.50;;;17.90;38.40;;;;;;5057326;28;20025;-66
2022/04/19 12:31:04;;;;;;;1.73;1.63;;;17.90;39.40;;;;;;5060376;28;20510;-66
2022/04/19 12:33:30;;;;;;;1.65;1.40;;;18.00;39.10;;;;;;5054802;28;20040;-66
2022/04/19 12:35:56;;;;;;;1.45;1.33;;;18.00;39.60;;;;;;5056239;28;20025;-66
2022/04/19 12:38:31;;;;;;;2.45;1.23;;;18.10;39.80;;;;;;5053900;28;20064;-66
2022/04/19 12:40:58;;;;;;;1.25;1.15;;;18.10;39.40;;;;;;5052567;28;20029;-66
2022/04/19 12:43:44;;;;;;;1.85;1.10;;;18.10;39.00;;;;;;5055031;28;20044;-66
2022/04/19 12:46:11;;;;;;;1.38;1.17;;;18.20;38.60;;;;;;5055477;28;20041;-66
2022/04/19 12:48:37;;;;;;;0.95;0.95;;;18.20;38.30;;;;;;5055377;28;20040;-66
2022/04/19 12:51:04;;;;;;;2.08;1.13;;;18.30;38.10;;;;;;5055798;28;20060;-66
2022/04/19 12:53:30;;;;;;;0.93;0.82;;;18.30;37.60;;;;;;5055089;28;20054;-65
2022/04/19 12:56:36;;;;;;;1.77;1.00;;;18.30;37.80;;;;;;5067304;28;20428;-66
2022/04/19 12:59:02;;;;;;;1.33;1.00;;;18.40;35.80;;;;;;5058353;28;20044;-64
2022/04/19 13:01:28;;;;;;;1.08;0.75;;;18.40;36.80;;;;;;5056062;28;20037;-66
2022/04/19 13:03:53;;;;;;;1.13;0.77;;;18.40;37.20;;;;;;5058605;28;20048;-66
2022/04/19 13:14:32;;;;;;;1.42;0.85;;;18.50;36.20;;;;;;5055126;28;20035;-65
2022/04/19 13:16:57;;;;;;;2.08;1.00;;;18.50;36.60;;;;;;5056720;28;20029;-66
2022/04/19 13:19:23;;;;;;;1.50;0.93;;;18.60;36.90;;;;;;5053186;28;20039;-65
2022/04/19 13:21:49;;;;;;;1.73;1.10;;;18.60;37.50;;;;;;5070334;28;20032;-66
2022/04/19 13:24:14;;;;;;;0.90;0.85;;;18.60;36.00;;;;;;5052964;28;20051;-65
2022/04/19 13:26:40;;;;;;;1.33;0.95;;;18.60;36.50;;;;;;5053239;28;20044;-66
2022/04/19 13:29:06;;;;;;;1.05;0.85;;;18.60;35.90;;;;;;5053965;28;20057;-66
2022/04/19 13:31:31;;;;;;;1.25;0.95;;;18.60;36.50;;;;;;5056953;28;20025;-65
2022/04/19 13:33:57;;;;;;;1.20;1.00;;;18.60;36.60;;;;;;5054935;28;20029;-66
2022/04/19 13:36:24;;;;;;;1.27;1.17;;;18.60;36.90;;;;;;5053663;28;20033;-65
2022/04/19 13:38:50;;;;;;;2.28;1.30;;;18.60;36.50;;;;;;5054786;28;20029;-66
2022/04/19 13:41:15;;;;;;;1.00;0.90;;;18.60;35.40;;;;;;5050649;28;20126;-66
2022/04/19 13:43:41;;;;;;;1.63;0.95;;;18.70;36.00;;;;;;5051955;28;20555;-65
2022/04/19 13:46:07;;;;;;;1.23;0.93;;;18.60;35.80;;;;;;5051807;28;20033;-66
2022/04/19 13:48:34;;;;;;;1.63;1.30;;;18.60;35.40;;;;;;5054072;28;20036;-66
2022/04/19 13:50:59;;;;;;;1.60;1.40;;;18.50;35.00;;;;;;5058466;28;20036;-65